Historique des mesures à Cassis (13260), France
Quotidien Résumé Octobre 3, 2017 Unités:  Métrique    US   Métrique/US
« Précédent (Jour)
Suivant (Jour) »
Quotidien Hebdomadaire Mensuel Annuel Période au choix
  Maximum: Minimum: Moyenne:
Température: TemperatureC °C 16.4 °C 19.2 °C
Point de rosée: DewpointC °C 11.4 °C 14.5 °C
Humidité: Humidity % 55 % 71 %
Vitesse du vent: 0 km/h 0 km/h 9 km/h
Rafales: 0 km/h - -
Vent:- - WSW
Pression: PressurehPa hPa 1013.4 hPa -
Précipitations: 0.0 mm    
Historical Graphs
 
 
Mesures pour : Octobre 3, 2017
Heure Temperature Point de rosée Pression Vent Vitesse du vent Rafales Humidité Pluie (par heure) Conditions
TemperatureC °C DewpointC °C PressurehPa hPa Calm     Humidity % HourlyPrecipMM mm SoftwareType W/m2
00:11 17.3 °C 13.8 °C 1018.5 hPa Calm   3.4 km/h 80 % 0.0 mm open2300-1.11 W/m2
01:11 16.8 °C 12.9 °C 1018.5 hPa Calm   3.4 km/h 78 % 0.0 mm open2300-1.11 W/m2
02:11 16.6 °C 13.2 °C 1018.2 hPa Calm   2.3 km/h 80 % 0.0 mm open2300-1.11 W/m2
03:11 16.4 °C 13.2 °C 1017.8 hPa Calm   2.9 km/h 81 % 0.0 mm open2300-1.11 W/m2
04:11 16.5 °C 13.4 °C 1017.8 hPa Calm   3.4 km/h 82 % 0.0 mm open2300-1.11 W/m2
06:11 17.3 °C 14.4 °C 1016.8 hPa Calm   2.9 km/h 83 % 0.0 mm open2300-1.11 W/m2
07:11 17.6 °C 14.9 °C 1016.5 hPa Calm   2.3 km/h 84 % 0.0 mm open2300-1.11 W/m2
08:11 17.6 °C 14.9 °C 1016.5 hPa Calm     84 % 0.0 mm open2300-1.11 W/m2
09:11 18.2 °C 15.4 °C 1016.8 hPa Calm     84 % 0.0 mm open2300-1.11 W/m2
10:11 19.3 °C 16.3 °C 1016.8 hPa Calm   2.9 km/h 83 % 0.0 mm open2300-1.11 W/m2
11:11 20.6 °C 17.1 °C 1016.8 hPa Calm   5.6 km/h 80 % 0.0 mm open2300-1.11 W/m2
12:11 22.1 °C 17.4 °C 1016.5 hPa South 3.4 km/h 3.4 km/h 75 % 0.0 mm open2300-1.11 W/m2
13:11 22.3 °C 17.7 °C 1016.1 hPa SSE 16.3 km/h 16.3 km/h 75 % 0.0 mm open2300-1.11 W/m2
14:11 23.6 °C 18.5 °C 1015.1 hPa WNW 4.7 km/h 15.6 km/h 73 % 0.0 mm open2300-1.11 W/m2
15:11 23.4 °C 17.4 °C 1014.4 hPa WNW 6.9 km/h 8.9 km/h 69 % 0.0 mm open2300-1.11 W/m2
16:11 23.2 °C 17.5 °C 1013.8 hPa NW 34.1 km/h 37 km/h 70 % 0.0 mm open2300-1.11 W/m2
17:11 22.8 °C 17.3 °C 1013.8 hPa NNW 33.6 km/h 43.5 km/h 71 % 0.0 mm open2300-1.11 W/m2
18:11 22.3 °C 16.8 °C 1013.4 hPa WNW 27.2 km/h 59.1 km/h 71 % 0.0 mm open2300-1.11 W/m2
19:11 22.4 °C 15.9 °C 1013.8 hPa NW 37.5 km/h 54.4 km/h 67 % 0.0 mm open2300-1.11 W/m2
20:11 22.1 °C 14.0 °C 1014.4 hPa NNE 23.8 km/h 23.8 km/h 60 % 0.0 mm open2300-1.11 W/m2
21:11 21.9 °C 12.7 °C 1014.4 hPa NNW 14 km/h 33.6 km/h 56 % 0.0 mm open2300-1.11 W/m2
22:11 21.1 °C 11.7 °C 1015.1 hPa WNW 16.3 km/h 16.9 km/h 55 % 0.0 mm open2300-1.11 W/m2
23:11 19.9 °C 11.4 °C 1016.1 hPa Calm   6.9 km/h 58 % 0.0 mm open2300-1.11 W/m2
Observations météo à CASSIS
WU-History script by Weather Underground - 1 mb